Time;durP1;ratioP1;P1;durP2;ratioP2;P2;SDS_P1;SDS_P2;PMS_P1;PMS_P2;Temp;Humidity;BMP_temperature;BMP_pressure;BME280_temperature;BME280_humidity;BME280_pressure;Samples;Min_cycle;Max_cycle;Signal;HPM_P1;HPM_P2
2023/08/18 00:01:53;;;;;;;13.02;8.90;;;;;;;;;;5013139;28;20648;-80
2023/08/18 00:04:20;;;;;;;14.95;9.45;;;;;;;;;;5006783;28;20088;-80
2023/08/18 00:06:47;;;;;;;15.70;9.85;;;;;;;;;;5009762;28;20429;-81
2023/08/18 00:09:13;;;;;;;14.90;9.52;;;;;;;;;;5011868;28;20054;-80
2023/08/18 00:11:40;;;;;;;14.70;9.52;;;;;;;;;;5012395;28;20824;-80
2023/08/18 00:14:07;;;;;;;12.35;8.90;;;;;;;;;;5006041;28;20588;-81
2023/08/18 00:16:33;;;;;;;13.43;9.50;;;;;;;;;;5010991;28;20058;-81
2023/08/18 00:19:00;;;;;;;13.70;9.02;;;;;;;;;;5009745;28;20069;-80
2023/08/18 00:21:26;;;;;;;18.23;9.70;;;;;;;;;;5008422;28;20046;-79
2023/08/18 00:23:53;;;;;;;14.10;9.40;;;;;;;;;;5006583;28;20066;-78
2023/08/18 00:26:20;;;;;;;14.10;8.57;;;;;;;;;;5004505;28;20046;-79
2023/08/18 00:28:47;;;;;;;12.80;8.82;;;;;;;;;;5002519;28;20116;-78
2023/08/18 00:31:13;;;;;;;13.85;8.38;;;;;;;;;;5010707;28;20058;-80
2023/08/18 00:33:40;;;;;;;11.05;8.55;;;;;;;;;;5005922;28;20097;-78
2023/08/18 00:36:07;;;;;;;11.60;8.35;;;;;;;;;;4996412;28;20042;-80
2023/08/18 00:38:34;;;;;;;12.38;8.43;;;;;;;;;;5006398;28;20054;-77
2023/08/18 00:41:01;;;;;;;11.43;8.20;;;;;;;;;;5021712;28;20049;-79
2023/08/18 00:43:27;;;;;;;12.95;8.30;;;;;;;;;;5002630;28;20061;-80
2023/08/18 00:45:54;;;;;;;15.70;9.00;;;;;;;;;;5006604;28;20041;-80
2023/08/18 00:48:23;;;;;;;11.43;8.18;;;;;;;;;;5014472;28;20058;-80
2023/08/18 00:50:50;;;;;;;12.45;7.90;;;;;;;;;;5009689;28;20125;-80
2023/08/18 00:53:16;;;;;;;11.93;8.00;;;;;;;;;;5003088;28;20046;-78
2023/08/18 00:55:44;;;;;;;10.98;8.38;;;;;;;;;;5008902;28;20065;-80
2023/08/18 00:58:11;;;;;;;12.15;7.70;;;;;;;;;;4999442;28;20883;-80
2023/08/18 01:00:38;;;;;;;11.65;7.75;;;;;;;;;;5000589;28;20241;-80
2023/08/18 01:03:06;;;;;;;13.15;8.32;;;;;;;;;;5009871;28;20647;-80
2023/08/18 01:05:32;;;;;;;13.80;8.63;;;;;;;;;;5004720;28;20057;-78
2023/08/18 01:08:00;;;;;;;12.38;8.57;;;;;;;;;;5010092;28;20782;-80
2023/08/18 01:10:28;;;;;;;10.50;8.20;;;;;;;;;;5007217;28;20126;-79
2023/08/18 01:13:01;;;;;;;15.60;7.38;;;;;;;;;;5007319;28;20038;-80
2023/08/18 01:15:35;;;;;;;14.32;9.52;;;;;;;;;;5004458;28;20188;-79
2023/08/18 01:18:03;;;;;;;13.43;8.35;;;;;;;;;;5012853;28;20053;-80
2023/08/18 01:20:30;;;;;;;13.48;8.98;;;;;;;;;;5007119;28;20046;-81
2023/08/18 01:23:01;;;;;;;12.93;8.93;;;;;;;;;;5014484;28;20048;-81
2023/08/18 01:25:28;;;;;;;13.90;8.80;;;;;;;;;;5010456;28;20049;-79
2023/08/18 01:27:55;;;;;;;12.32;8.35;;;;;;;;;;5006304;28;20073;-79
2023/08/18 01:30:44;;;;;;;12.30;8.25;;;;;;;;;;5006371;28;20049;-80
2023/08/18 01:33:14;;;;;;;12.55;7.93;;;;;;;;;;4987169;28;20153;-79
2023/08/18 01:35:42;;;;;;;13.55;8.65;;;;;;;;;;4993419;28;20043;-77
2023/08/18 01:38:10;;;;;;;16.33;8.95;;;;;;;;;;4997972;28;20038;-78
2023/08/18 01:40:37;;;;;;;11.30;8.10;;;;;;;;;;5000114;28;20057;-78
2023/08/18 01:43:07;;;;;;;10.90;8.07;;;;;;;;;;4997064;28;20049;-78
2023/08/18 01:45:34;;;;;;;11.02;8.07;;;;;;;;;;4994832;28;20667;-78
2023/08/18 01:48:01;;;;;;;13.45;8.38;;;;;;;;;;4994765;28;20687;-77
2023/08/18 01:50:28;;;;;;;12.98;8.43;;;;;;;;;;4996444;28;20073;-78
2023/08/18 01:52:55;;;;;;;10.73;7.57;;;;;;;;;;4995136;28;20045;-78
2023/08/18 01:55:22;;;;;;;12.52;8.05;;;;;;;;;;4995538;28;20472;-78
2023/08/18 01:57:48;;;;;;;11.68;8.23;;;;;;;;;;4994934;28;20038;-79
2023/08/18 02:00:15;;;;;;;11.40;8.23;;;;;;;;;;4987908;28;20045;-78
2023/08/18 02:02:47;;;;;;;12.00;7.93;;;;;;;;;;4977780;28;21475;-79
2023/08/18 02:05:14;;;;;;;12.65;8.32;;;;;;;;;;4987644;28;20073;-77
2023/08/18 02:07:41;;;;;;;14.05;8.32;;;;;;;;;;5004597;28;20042;-77
2023/08/18 02:10:08;;;;;;;12.90;8.85;;;;;;;;;;5003827;28;20402;-77
2023/08/18 02:12:34;;;;;;;11.93;8.23;;;;;;;;;;5004618;28;20521;-77
2023/08/18 02:15:01;;;;;;;12.50;8.23;;;;;;;;;;5012036;28;20089;-79
2023/08/18 02:17:30;;;;;;;11.30;7.82;;;;;;;;;;5018180;28;20249;-80
2023/08/18 02:19:58;;;;;;;12.38;7.60;;;;;;;;;;5016162;28;20053;-78
2023/08/18 02:22:26;;;;;;;9.82;7.50;;;;;;;;;;5005540;28;20413;-80
2023/08/18 02:24:52;;;;;;;13.90;7.55;;;;;;;;;;5017102;28;20037;-79
2023/08/18 02:27:19;;;;;;;11.65;7.03;;;;;;;;;;5013142;28;20437;-79
2023/08/18 02:29:46;;;;;;;13.38;8.27;;;;;;;;;;5014733;28;20068;-79
2023/08/18 02:32:12;;;;;;;11.77;7.57;;;;;;;;;;5008996;28;20045;-79
2023/08/18 02:34:39;;;;;;;12.35;7.90;;;;;;;;;;5004840;28;20069;-79
2023/08/18 02:37:06;;;;;;;13.65;7.85;;;;;;;;;;5002686;28;20054;-77
2023/08/18 02:39:33;;;;;;;10.68;7.38;;;;;;;;;;5003042;28;20049;-79
2023/08/18 02:41:59;;;;;;;11.57;7.18;;;;;;;;;;5000236;28;20050;-79
2023/08/18 02:44:26;;;;;;;13.05;6.88;;;;;;;;;;5004192;28;20042;-81
2023/08/18 02:46:53;;;;;;;10.85;6.72;;;;;;;;;;5004996;28;20050;-80
2023/08/18 02:49:20;;;;;;;9.98;6.45;;;;;;;;;;5007806;28;20050;-80
2023/08/18 02:51:47;;;;;;;7.97;5.53;;;;;;;;;;5007354;28;20061;-79
2023/08/18 02:54:13;;;;;;;10.43;6.57;;;;;;;;;;4989413;28;20081;-81
2023/08/18 02:56:40;;;;;;;9.82;6.00;;;;;;;;;;5015502;28;20042;-80
2023/08/18 02:59:07;;;;;;;8.27;6.07;;;;;;;;;;5011021;28;20137;-80
2023/08/18 03:01:33;;;;;;;8.02;5.63;;;;;;;;;;5010617;28;20049;-80
2023/08/18 03:04:00;;;;;;;8.07;5.80;;;;;;;;;;5009056;28;20993;-80
2023/08/18 03:06:27;;;;;;;10.00;6.43;;;;;;;;;;5016898;28;20093;-79
2023/08/18 03:08:53;;;;;;;8.60;5.80;;;;;;;;;;5006751;28;20105;-79
2023/08/18 03:11:24;;;;;;;11.38;6.35;;;;;;;;;;5020021;28;20058;-80
2023/08/18 03:13:51;;;;;;;8.70;6.15;;;;;;;;;;5010536;28;20050;-80
2023/08/18 03:16:18;;;;;;;11.40;6.63;;;;;;;;;;5007342;28;20101;-79
2023/08/18 03:18:45;;;;;;;8.32;6.35;;;;;;;;;;5006169;28;20291;-79
2023/08/18 03:21:13;;;;;;;9.60;6.43;;;;;;;;;;5014833;28;20104;-80
2023/08/18 03:23:39;;;;;;;9.82;6.15;;;;;;;;;;5012074;28;20513;-80
2023/08/18 03:26:06;;;;;;;8.68;6.30;;;;;;;;;;5011722;28;20056;-80
2023/08/18 03:28:35;;;;;;;8.63;6.13;;;;;;;;;;5013470;28;20042;-77
2023/08/18 03:31:04;;;;;;;8.13;5.95;;;;;;;;;;4999296;28;20097;-78
2023/08/18 03:33:32;;;;;;;12.10;6.57;;;;;;;;;;5007763;28;20363;-76
2023/08/18 03:36:01;;;;;;;10.57;6.88;;;;;;;;;;5008886;28;20072;-78
2023/08/18 03:38:28;;;;;;;10.32;6.40;;;;;;;;;;5016014;28;20057;-78
2023/08/18 03:40:59;;;;;;;9.77;6.45;;;;;;;;;;5011449;28;20415;-79
2023/08/18 03:43:26;;;;;;;12.27;7.07;;;;;;;;;;5011502;28;20054;-78
2023/08/18 03:45:53;;;;;;;9.27;6.65;;;;;;;;;;5010231;28;20062;-79
2023/08/18 03:48:20;;;;;;;10.55;6.68;;;;;;;;;;5012449;28;20053;-80
2023/08/18 03:50:47;;;;;;;10.23;6.82;;;;;;;;;;5005451;28;20054;-79
2023/08/18 03:53:14;;;;;;;8.93;6.47;;;;;;;;;;5008716;28;20072;-78
2023/08/18 03:55:41;;;;;;;8.27;5.72;;;;;;;;;;4983750;28;20089;-79
2023/08/18 03:58:07;;;;;;;10.27;6.28;;;;;;;;;;4987602;28;20053;-77
2023/08/18 04:00:34;;;;;;;8.82;6.10;;;;;;;;;;5004078;28;20092;-79
2023/08/18 04:03:03;;;;;;;9.25;6.65;;;;;;;;;;5001879;28;20046;-77
2023/08/18 04:05:30;;;;;;;9.85;6.43;;;;;;;;;;4999313;28;20060;-78
2023/08/18 04:07:57;;;;;;;8.00;6.20;;;;;;;;;;5007879;28;20034;-77
2023/08/18 04:10:23;;;;;;;10.75;7.20;;;;;;;;;;5002965;28;20173;-79
2023/08/18 04:12:50;;;;;;;10.85;6.97;;;;;;;;;;4996765;28;20046;-78
2023/08/18 04:15:19;;;;;;;9.88;6.85;;;;;;;;;;4998012;28;20050;-78
2023/08/18 04:17:48;;;;;;;11.68;6.40;;;;;;;;;;5000765;28;20057;-78
2023/08/18 04:20:15;;;;;;;10.13;6.75;;;;;;;;;;5000030;28;20054;-77
2023/08/18 04:22:42;;;;;;;11.90;6.97;;;;;;;;;;5007039;28;20053;-78
2023/08/18 04:25:09;;;;;;;13.80;7.40;;;;;;;;;;4981346;28;20046;-78
2023/08/18 04:27:36;;;;;;;11.75;7.70;;;;;;;;;;4999970;28;20469;-79
2023/08/18 04:30:03;;;;;;;10.15;7.00;;;;;;;;;;5020172;28;21020;-77
2023/08/18 04:32:31;;;;;;;12.30;7.63;;;;;;;;;;5020039;28;20084;-80
2023/08/18 04:34:59;;;;;;;13.50;8.10;;;;;;;;;;5003116;28;20054;-79
2023/08/18 04:37:25;;;;;;;13.05;7.22;;;;;;;;;;5006799;28;20074;-78
2023/08/18 04:39:52;;;;;;;11.98;7.78;;;;;;;;;;5007278;28;20042;-79
2023/08/18 04:42:20;;;;;;;11.57;8.45;;;;;;;;;;5000018;28;20042;-79
2023/08/18 04:44:46;;;;;;;11.77;8.32;;;;;;;;;;5002163;28;20049;-79
2023/08/18 04:47:13;;;;;;;11.68;8.68;;;;;;;;;;5003497;28;20541;-79
2023/08/18 04:49:39;;;;;;;12.85;8.13;;;;;;;;;;4998093;28;20407;-78
2023/08/18 04:52:07;;;;;;;14.82;8.40;;;;;;;;;;4998122;28;20054;-79
2023/08/18 04:54:35;;;;;;;12.85;8.18;;;;;;;;;;5000108;28;20042;-78
2023/08/18 04:57:03;;;;;;;15.88;8.68;;;;;;;;;;4982221;28;20050;-78
2023/08/18 04:59:31;;;;;;;11.93;8.27;;;;;;;;;;5011582;28;20046;-78
2023/08/18 05:02:00;;;;;;;12.48;8.68;;;;;;;;;;5003146;28;20107;-79
2023/08/18 05:04:27;;;;;;;12.85;8.98;;;;;;;;;;4998563;28;20105;-79
2023/08/18 05:06:54;;;;;;;13.02;9.48;;;;;;;;;;4989023;28;20133;-79
2023/08/18 05:09:21;;;;;;;13.55;9.05;;;;;;;;;;5000017;28;20112;-79
2023/08/18 05:11:48;;;;;;;13.25;9.45;;;;;;;;;;4996275;28;20570;-79
2023/08/18 05:14:15;;;;;;;15.77;9.95;;;;;;;;;;5007153;28;20050;-80
2023/08/18 05:16:41;;;;;;;13.32;8.65;;;;;;;;;;4999711;28;20731;-80
2023/08/18 05:19:08;;;;;;;12.45;8.88;;;;;;;;;;5011194;28;20046;-82
2023/08/18 05:21:35;;;;;;;15.27;9.90;;;;;;;;;;5007834;28;20061;-81
2023/08/18 05:24:01;;;;;;;17.83;9.77;;;;;;;;;;5009387;28;20046;-80
2023/08/18 05:26:28;;;;;;;12.63;8.82;;;;;;;;;;5011169;28;20053;-84
2023/08/18 05:28:55;;;;;;;13.02;8.35;;;;;;;;;;5009576;28;20037;-82
2023/08/18 05:31:21;;;;;;;14.30;8.85;;;;;;;;;;5015410;28;20077;-84
2023/08/18 05:33:48;;;;;;;14.07;8.57;;;;;;;;;;5030009;28;20048;-84
2023/08/18 05:36:15;;;;;;;14.98;8.38;;;;;;;;;;4999725;28;20111;-80
2023/08/18 05:38:41;;;;;;;18.15;11.65;;;;;;;;;;5016739;28;20038;-84
2023/08/18 05:41:11;;;;;;;14.07;9.63;;;;;;;;;;5014842;28;20109;-83
2023/08/18 05:43:38;;;;;;;16.77;10.57;;;;;;;;;;5021143;28;20128;-82
2023/08/18 05:46:05;;;;;;;15.02;10.50;;;;;;;;;;5019509;28;20575;-81
2023/08/18 05:48:32;;;;;;;18.13;11.27;;;;;;;;;;5015887;28;20525;-81
2023/08/18 05:50:59;;;;;;;18.33;10.70;;;;;;;;;;5016074;28;20062;-82
2023/08/18 05:53:26;;;;;;;15.95;10.18;;;;;;;;;;5012067;28;20065;-82
2023/08/18 05:55:53;;;;;;;18.40;10.40;;;;;;;;;;5019219;28;20579;-79
2023/08/18 05:58:20;;;;;;;16.70;10.50;;;;;;;;;;5024377;28;20057;-80
2023/08/18 06:00:49;;;;;;;19.95;11.48;;;;;;;;;;5023905;28;20457;-82
2023/08/18 06:03:19;;;;;;;23.45;13.30;;;;;;;;;;5017409;28;20042;-81
2023/08/18 06:05:49;;;;;;;23.67;14.18;;;;;;;;;;5009602;28;20116;-83
2023/08/18 06:08:16;;;;;;;28.90;13.40;;;;;;;;;;5012199;28;20053;-82
2023/08/18 06:10:43;;;;;;;24.92;14.20;;;;;;;;;;5014395;28;20053;-82
2023/08/18 06:13:09;;;;;;;28.58;16.17;;;;;;;;;;5019107;28;20050;-81
2023/08/18 06:15:36;;;;;;;28.50;15.15;;;;;;;;;;5019868;28;20071;-81
2023/08/18 06:18:03;;;;;;;24.25;13.55;;;;;;;;;;5030832;28;20058;-81
2023/08/18 06:20:30;;;;;;;26.20;13.27;;;;;;;;;;5023771;28;20045;-79
2023/08/18 06:22:57;;;;;;;24.10;12.40;;;;;;;;;;5021801;28;20046;-81
2023/08/18 06:25:23;;;;;;;21.05;11.07;;;;;;;;;;5030879;28;20062;-82
2023/08/18 06:27:50;;;;;;;17.27;10.02;;;;;;;;;;4980616;28;1334171;-80
2023/08/18 06:30:16;;;;;;;15.20;9.90;;;;;;;;;;5023423;28;20068;-82
2023/08/18 06:32:44;;;;;;;18.42;11.10;;;;;;;;;;5022186;28;20073;-80
2023/08/18 06:35:11;;;;;;;20.63;12.43;;;;;;;;;;5008173;28;20038;-81
2023/08/18 06:37:41;;;;;;;17.52;11.73;;;;;;;;;;5014967;28;20057;-80
2023/08/18 06:40:08;;;;;;;22.23;11.73;;;;;;;;;;5012482;28;20053;-80
2023/08/18 06:42:35;;;;;;;18.90;11.02;;;;;;;;;;5004037;28;20053;-82
2023/08/18 06:45:03;;;;;;;20.50;10.40;;;;;;;;;;5015737;28;20053;-79
2023/08/18 06:47:30;;;;;;;14.45;9.88;;;;;;;;;;5012340;28;20057;-80
2023/08/18 06:49:59;;;;;;;16.70;10.43;;;;;;;;;;5006987;28;20261;-80
2023/08/18 06:52:27;;;;;;;17.65;10.27;;;;;;;;;;5026809;28;20045;-80
2023/08/18 06:54:55;;;;;;;16.85;10.90;;;;;;;;;;5008653;28;21570;-82
2023/08/18 06:57:22;;;;;;;18.30;10.52;;;;;;;;;;5022323;28;20046;-80
2023/08/18 06:59:49;;;;;;;20.33;10.23;;;;;;;;;;5028078;28;20060;-84
2023/08/18 07:02:15;;;;;;;15.48;10.05;;;;;;;;;;5019454;28;20042;-79
2023/08/18 07:04:42;;;;;;;15.32;9.65;;;;;;;;;;5018843;28;20038;-84
2023/08/18 07:07:09;;;;;;;11.85;7.93;;;;;;;;;;5022108;28;20045;-80
2023/08/18 07:09:35;;;;;;;16.15;8.57;;;;;;;;;;5012443;28;20081;-79
2023/08/18 07:12:03;;;;;;;11.90;8.05;;;;;;;;;;5016791;28;20050;-81
2023/08/18 07:14:29;;;;;;;14.35;8.75;;;;;;;;;;5008509;28;20041;-79
2023/08/18 07:16:56;;;;;;;10.27;6.72;;;;;;;;;;5013458;28;20454;-82
2023/08/18 07:19:23;;;;;;;12.23;6.10;;;;;;;;;;5010032;28;20102;-81
2023/08/18 07:21:51;;;;;;;9.38;5.88;;;;;;;;;;5012988;28;20030;-80
2023/08/18 07:24:18;;;;;;;7.82;5.95;;;;;;;;;;4994050;28;20046;-81
2023/08/18 07:26:44;;;;;;;8.40;5.57;;;;;;;;;;5010498;28;20069;-80
2023/08/18 07:29:11;;;;;;;6.40;4.60;;;;;;;;;;5008999;28;20491;-82
2023/08/18 07:31:38;;;;;;;8.15;5.30;;;;;;;;;;5009134;28;20088;-78
2023/08/18 07:34:05;;;;;;;8.65;4.82;;;;;;;;;;5009561;28;20049;-79
2023/08/18 07:36:33;;;;;;;7.15;4.80;;;;;;;;;;5007452;28;20065;-79
2023/08/18 07:38:59;;;;;;;6.28;4.57;;;;;;;;;;5016648;28;20545;-81
2023/08/18 07:41:26;;;;;;;8.10;4.75;;;;;;;;;;5019181;28;20049;-80
2023/08/18 07:43:52;;;;;;;6.10;4.43;;;;;;;;;;5004152;28;20573;-79
2023/08/18 07:46:19;;;;;;;7.63;4.95;;;;;;;;;;5010436;28;20133;-82
2023/08/18 07:48:46;;;;;;;7.70;5.13;;;;;;;;;;5012654;28;20122;-82
2023/08/18 07:51:13;;;;;;;8.00;4.57;;;;;;;;;;5016204;28;20042;-79
2023/08/18 07:53:39;;;;;;;7.00;4.10;;;;;;;;;;5019235;28;20034;-82
2023/08/18 07:56:06;;;;;;;6.38;4.68;;;;;;;;;;5009811;28;20150;-82
2023/08/18 07:58:33;;;;;;;6.78;4.57;;;;;;;;;;5021790;28;20121;-81
2023/08/18 08:00:59;;;;;;;8.15;4.80;;;;;;;;;;5008252;28;20094;-80
2023/08/18 08:03:26;;;;;;;8.75;5.40;;;;;;;;;;5015367;28;20042;-82
2023/08/18 08:05:53;;;;;;;7.65;5.47;;;;;;;;;;5014356;28;20096;-79
2023/08/18 08:08:20;;;;;;;8.13;5.30;;;;;;;;;;5015217;28;20045;-81
2023/08/18 08:10:46;;;;;;;7.30;4.72;;;;;;;;;;5018504;28;20049;-81
2023/08/18 08:13:13;;;;;;;6.88;4.65;;;;;;;;;;5016890;28;20590;-82
2023/08/18 08:15:40;;;;;;;7.22;4.70;;;;;;;;;;5007800;28;20057;-82
2023/08/18 08:18:08;;;;;;;6.53;4.63;;;;;;;;;;5016981;28;20050;-78
2023/08/18 08:20:37;;;;;;;5.93;4.43;;;;;;;;;;5011458;28;20080;-81
2023/08/18 08:23:04;;;;;;;11.32;4.85;;;;;;;;;;5006356;28;20056;-79
2023/08/18 08:25:32;;;;;;;7.03;5.03;;;;;;;;;;5016335;28;20561;-81
2023/08/18 08:27:59;;;;;;;7.88;4.82;;;;;;;;;;5009487;28;20069;-82
2023/08/18 08:30:28;;;;;;;6.22;4.68;;;;;;;;;;5011406;28;20046;-81
2023/08/18 08:33:03;;;;;;;7.03;4.85;;;;;;;;;;5010958;28;20069;-82
2023/08/18 08:35:31;;;;;;;7.10;5.03;;;;;;;;;;4999802;28;20049;-80
2023/08/18 08:37:58;;;;;;;6.82;4.95;;;;;;;;;;5012372;28;21372;-83
2023/08/18 08:40:25;;;;;;;10.43;5.38;;;;;;;;;;5000715;28;20054;-80
2023/08/18 08:42:56;;;;;;;6.20;4.50;;;;;;;;;;5010344;28;20046;-81
2023/08/18 08:45:30;;;;;;;6.53;4.75;;;;;;;;;;4999514;28;20540;-81
2023/08/18 08:47:58;;;;;;;8.18;5.10;;;;;;;;;;5014126;28;20046;-80
2023/08/18 08:50:27;;;;;;;8.07;5.22;;;;;;;;;;5011435;28;20046;-79
2023/08/18 08:52:58;;;;;;;6.35;5.07;;;;;;;;;;5005455;28;20042;-81
2023/08/18 08:55:27;;;;;;;7.70;5.75;;;;;;;;;;5002718;28;20046;-82
2023/08/18 08:57:53;;;;;;;7.95;5.15;;;;;;;;;;5009665;28;20105;-81
2023/08/18 09:00:20;;;;;;;7.78;5.00;;;;;;;;;;5012088;28;20058;-81
2023/08/18 09:02:53;;;;;;;7.57;5.53;;;;;;;;;;5014119;28;20044;-82
2023/08/18 09:05:21;;;;;;;8.25;5.60;;;;;;;;;;4997652;28;20053;-81
2023/08/18 09:07:53;;;;;;;8.52;5.25;;;;;;;;;;5004886;28;20050;-79
2023/08/18 09:10:20;;;;;;;7.28;5.85;;;;;;;;;;5005330;28;20051;-82
2023/08/18 09:12:47;;;;;;;8.30;5.65;;;;;;;;;;5010910;28;20050;-83
2023/08/18 09:15:15;;;;;;;11.35;5.88;;;;;;;;;;5002104;28;20042;-81
2023/08/18 09:17:44;;;;;;;6.65;5.40;;;;;;;;;;5012283;28;20046;-81
2023/08/18 09:20:13;;;;;;;9.30;5.65;;;;;;;;;;5021719;28;20064;-82
2023/08/18 09:22:40;;;;;;;8.02;5.82;;;;;;;;;;5009880;28;20122;-84
2023/08/18 09:25:11;;;;;;;9.23;5.68;;;;;;;;;;5010172;28;20586;-83
2023/08/18 09:27:38;;;;;;;7.78;5.38;;;;;;;;;;5017024;28;20057;-80
2023/08/18 09:30:05;;;;;;;7.97;5.30;;;;;;;;;;5011594;28;20470;-81
2023/08/18 09:32:32;;;;;;;8.55;6.13;;;;;;;;;;5010127;28;20072;-81
2023/08/18 09:34:59;;;;;;;10.82;7.07;;;;;;;;;;5014568;28;20109;-82
2023/08/18 09:37:30;;;;;;;10.65;6.63;;;;;;;;;;5013613;28;20107;-81
2023/08/18 09:39:58;;;;;;;10.95;7.30;;;;;;;;;;5013020;28;20053;-81
2023/08/18 09:42:25;;;;;;;10.40;6.97;;;;;;;;;;5011044;28;20038;-82
2023/08/18 09:44:52;;;;;;;12.02;6.60;;;;;;;;;;5007424;28;20039;-81
2023/08/18 09:47:21;;;;;;;11.57;6.70;;;;;;;;;;5012184;28;20053;-83
2023/08/18 09:49:49;;;;;;;10.73;7.40;;;;;;;;;;5006712;28;20045;-82
2023/08/18 09:52:15;;;;;;;12.77;7.30;;;;;;;;;;5004195;28;20038;-82
2023/08/18 09:54:58;;;;;;;10.70;6.90;;;;;;;;;;5031375;28;20038;-82
2023/08/18 09:57:29;;;;;;;10.00;6.88;;;;;;;;;;5011158;28;20532;-81
2023/08/18 09:59:58;;;;;;;9.02;6.47;;;;;;;;;;5014953;28;20068;-80
2023/08/18 10:02:34;;;;;;;8.75;6.13;;;;;;;;;;5012631;28;20122;-82
2023/08/18 10:05:02;;;;;;;8.93;5.85;;;;;;;;;;5004955;28;20098;-80
2023/08/18 10:07:30;;;;;;;10.40;5.97;;;;;;;;;;5007097;28;20531;-78
2023/08/18 10:09:57;;;;;;;7.85;5.50;;;;;;;;;;5004619;28;20041;-79
2023/08/18 10:12:23;;;;;;;8.60;5.22;;;;;;;;;;4998725;28;20046;-80
2023/08/18 10:14:51;;;;;;;7.43;5.45;;;;;;;;;;5011800;28;20046;-79
2023/08/18 10:17:21;;;;;;;6.82;5.22;;;;;;;;;;4991563;28;20043;-81
2023/08/18 10:19:50;;;;;;;7.75;4.90;;;;;;;;;;5006352;28;20046;-80
2023/08/18 10:22:19;;;;;;;7.13;5.07;;;;;;;;;;5005152;28;20150;-81
2023/08/18 10:24:46;;;;;;;10.32;5.35;;;;;;;;;;5001085;28;20058;-82
2023/08/18 10:27:33;;;;;;;9.73;5.60;;;;;;;;;;5002676;28;20480;-80
2023/08/18 10:30:10;;;;;;;7.07;5.20;;;;;;;;;;4998799;28;20080;-82
2023/08/18 10:32:36;;;;;;;7.72;5.25;;;;;;;;;;5018358;28;20042;-83
2023/08/18 10:35:22;;;;;;;6.20;4.78;;;;;;;;;;5000625;28;20053;-81
2023/08/18 10:38:05;;;;;;;7.85;5.20;;;;;;;;;;5004638;28;20803;-82
2023/08/18 10:40:36;;;;;;;7.00;5.05;;;;;;;;;;5003907;28;20057;-82
2023/08/18 10:43:03;;;;;;;7.63;5.40;;;;;;;;;;4998944;28;21455;-80
2023/08/18 10:45:30;;;;;;;7.05;4.85;;;;;;;;;;5001956;28;20540;-80
2023/08/18 10:47:57;;;;;;;6.93;5.22;;;;;;;;;;4982785;28;20046;-81
2023/08/18 10:50:26;;;;;;;7.45;5.07;;;;;;;;;;4998621;28;20050;-80
2023/08/18 10:52:52;;;;;;;6.65;5.00;;;;;;;;;;5013732;28;20080;-79
2023/08/18 10:55:19;;;;;;;7.03;5.40;;;;;;;;;;5001406;28;20057;-81
2023/08/18 10:57:46;;;;;;;11.32;6.30;;;;;;;;;;5000528;28;20257;-81
2023/08/18 11:00:13;;;;;;;7.07;5.50;;;;;;;;;;4995441;28;21662;-84
2023/08/18 11:02:41;;;;;;;7.03;4.97;;;;;;;;;;5001356;28;20062;-81
2023/08/18 11:05:08;;;;;;;7.25;5.38;;;;;;;;;;4997450;28;20038;-80
2023/08/18 11:07:34;;;;;;;7.60;4.80;;;;;;;;;;5019914;28;20534;-81
2023/08/18 11:10:05;;;;;;;9.18;5.70;;;;;;;;;;5017954;28;20046;-79
2023/08/18 11:12:32;;;;;;;7.85;5.63;;;;;;;;;;5020552;28;20054;-80
2023/08/18 11:14:58;;;;;;;7.35;5.78;;;;;;;;;;5016284;28;20069;-82
2023/08/18 11:17:25;;;;;;;8.15;5.63;;;;;;;;;;5010766;28;20061;-78
2023/08/18 11:19:54;;;;;;;6.00;5.07;;;;;;;;;;5011123;28;20883;-81
2023/08/18 11:22:20;;;;;;;7.72;5.00;;;;;;;;;;5023968;28;20079;-79
2023/08/18 11:24:47;;;;;;;7.30;5.15;;;;;;;;;;5016969;28;20101;-79
2023/08/18 11:27:14;;;;;;;8.02;4.88;;;;;;;;;;5014553;28;20922;-80
2023/08/18 11:29:41;;;;;;;7.20;5.05;;;;;;;;;;5010361;28;20054;-80
2023/08/18 11:32:08;;;;;;;8.13;4.88;;;;;;;;;;5013662;28;20042;-79
2023/08/18 11:34:35;;;;;;;9.45;5.60;;;;;;;;;;5013671;28;20054;-81
2023/08/18 11:37:02;;;;;;;7.10;5.13;;;;;;;;;;5008806;28;20046;-76
2023/08/18 11:39:29;;;;;;;7.70;5.13;;;;;;;;;;5010036;28;20079;-80
2023/08/18 11:41:56;;;;;;;6.60;5.30;;;;;;;;;;5007576;28;20106;-79
2023/08/18 11:44:23;;;;;;;5.78;4.80;;;;;;;;;;5011608;28;22209;-80
2023/08/18 11:46:51;;;;;;;5.93;5.20;;;;;;;;;;5008562;28;20046;-78
2023/08/18 11:49:19;;;;;;;6.97;5.03;;;;;;;;;;5005742;28;20045;-78
2023/08/18 11:51:59;;;;;;;6.70;4.70;;;;;;;;;;4999203;28;20090;-77
2023/08/18 11:54:28;;;;;;;5.20;4.30;;;;;;;;;;5003822;28;20716;-79
2023/08/18 11:56:55;;;;;;;6.72;4.85;;;;;;;;;;5012755;28;20041;-77
2023/08/18 11:59:22;;;;;;;5.30;4.75;;;;;;;;;;5001528;28;20047;-78
2023/08/18 12:01:55;;;;;;;5.90;5.00;;;;;;;;;;5012383;28;20607;-77
2023/08/18 12:04:25;;;;;;;5.88;4.53;;;;;;;;;;5017084;28;20072;-78
2023/08/18 12:06:52;;;;;;;6.15;4.85;;;;;;;;;;5015996;28;20100;-78
2023/08/18 12:09:19;;;;;;;7.78;5.70;;;;;;;;;;5021847;28;20046;-81
2023/08/18 12:11:47;;;;;;;6.45;5.05;;;;;;;;;;5016203;28;20057;-79
2023/08/18 12:14:13;;;;;;;7.13;5.35;;;;;;;;;;5015462;28;20041;-79
2023/08/18 12:16:41;;;;;;;6.50;5.07;;;;;;;;;;5013731;28;20046;-82
2023/08/18 12:19:07;;;;;;;7.05;5.05;;;;;;;;;;5005649;28;20053;-78
2023/08/18 12:21:38;;;;;;;6.38;5.15;;;;;;;;;;5010489;28;20103;-78
2023/08/18 12:24:05;;;;;;;6.30;4.95;;;;;;;;;;5010861;28;20112;-79
2023/08/18 12:26:32;;;;;;;5.90;4.80;;;;;;;;;;5011179;28;20061;-78
2023/08/18 12:29:00;;;;;;;5.63;4.68;;;;;;;;;;5017693;28;20531;-78
2023/08/18 12:31:28;;;;;;;8.60;5.68;;;;;;;;;;5017463;28;20041;-77
2023/08/18 12:33:55;;;;;;;8.73;5.32;;;;;;;;;;5019005;28;20052;-78
2023/08/18 12:36:22;;;;;;;7.53;5.00;;;;;;;;;;5011946;28;20112;-80
2023/08/18 12:38:48;;;;;;;6.97;5.22;;;;;;;;;;5018488;28;20084;-80
2023/08/18 12:41:16;;;;;;;9.40;5.63;;;;;;;;;;5016869;28;20116;-79
2023/08/18 12:43:42;;;;;;;8.52;5.53;;;;;;;;;;5022031;28;20458;-79
2023/08/18 12:46:09;;;;;;;6.95;5.40;;;;;;;;;;5019211;28;20042;-82
2023/08/18 12:48:36;;;;;;;7.55;5.30;;;;;;;;;;5037996;28;20045;-80
2023/08/18 12:51:02;;;;;;;8.07;5.35;;;;;;;;;;5033838;28;20034;-80
2023/08/18 12:53:29;;;;;;;8.98;5.80;;;;;;;;;;5010946;28;20077;-79
2023/08/18 12:55:56;;;;;;;7.30;5.00;;;;;;;;;;5011233;28;20053;-80
2023/08/18 12:58:22;;;;;;;8.70;4.95;;;;;;;;;;5014373;28;20557;-78
2023/08/18 13:00:49;;;;;;;8.52;5.75;;;;;;;;;;5021342;28;20571;-79
2023/08/18 13:03:16;;;;;;;8.25;5.30;;;;;;;;;;5019357;28;20052;-80
2023/08/18 13:05:44;;;;;;;8.05;5.35;;;;;;;;;;5016924;28;20524;-78
2023/08/18 13:08:10;;;;;;;8.57;5.45;;;;;;;;;;5011820;28;20053;-79
2023/08/18 13:10:37;;;;;;;7.43;5.30;;;;;;;;;;5018945;28;20045;-78
2023/08/18 13:13:04;;;;;;;8.10;5.60;;;;;;;;;;5024950;28;20076;-78
2023/08/18 13:15:30;;;;;;;7.97;5.80;;;;;;;;;;5024855;28;20073;-79
2023/08/18 13:17:57;;;;;;;7.13;5.75;;;;;;;;;;5025930;28;20046;-78
2023/08/18 13:20:23;;;;;;;7.22;5.47;;;;;;;;;;5019498;28;20084;-80
2023/08/18 13:22:50;;;;;;;8.05;5.45;;;;;;;;;;5020403;28;20780;-81
2023/08/18 13:25:18;;;;;;;8.07;5.95;;;;;;;;;;5023644;28;20058;-80
2023/08/18 13:27:44;;;;;;;7.38;5.43;;;;;;;;;;5020092;28;20172;-80
2023/08/18 13:30:11;;;;;;;8.68;5.88;;;;;;;;;;5020291;28;20045;-78
2023/08/18 13:32:38;;;;;;;7.80;5.68;;;;;;;;;;5001293;28;20045;-80
2023/08/18 13:35:06;;;;;;;9.68;6.10;;;;;;;;;;5023012;28;20559;-79
2023/08/18 13:37:32;;;;;;;7.60;5.43;;;;;;;;;;5014919;28;20096;-80
2023/08/18 13:39:59;;;;;;;7.78;6.00;;;;;;;;;;5018459;28;20050;-78
2023/08/18 13:42:26;;;;;;;7.68;5.90;;;;;;;;;;5018180;28;20064;-80
2023/08/18 13:44:52;;;;;;;8.90;5.30;;;;;;;;;;5015018;28;20071;-80
2023/08/18 13:47:20;;;;;;;10.10;5.50;;;;;;;;;;4996422;28;20050;-81
2023/08/18 13:49:47;;;;;;;7.82;5.68;;;;;;;;;;5013306;28;20046;-78
2023/08/18 13:52:13;;;;;;;8.73;5.50;;;;;;;;;;5022231;28;20048;-80
2023/08/18 13:54:40;;;;;;;8.15;5.72;;;;;;;;;;5015907;28;20046;-80
2023/08/18 13:57:07;;;;;;;7.80;5.68;;;;;;;;;;4998158;28;20048;-78
2023/08/18 13:59:33;;;;;;;8.30;5.43;;;;;;;;;;5015515;28;20077;-79
2023/08/18 14:02:00;;;;;;;8.68;6.00;;;;;;;;;;5008490;28;21133;-81
2023/08/18 14:04:27;;;;;;;8.05;5.20;;;;;;;;;;5009205;28;20057;-79
2023/08/18 14:06:57;;;;;;;7.57;5.57;;;;;;;;;;5006018;28;20091;-77
2023/08/18 14:09:26;;;;;;;6.63;5.38;;;;;;;;;;5001536;28;20545;-77
2023/08/18 14:11:53;;;;;;;6.03;4.80;;;;;;;;;;5003172;28;20057;-77
2023/08/18 14:14:22;;;;;;;6.55;5.13;;;;;;;;;;4983920;28;20053;-79
2023/08/18 14:16:49;;;;;;;8.75;5.40;;;;;;;;;;5009440;28;20047;-78
2023/08/18 14:19:16;;;;;;;6.78;5.28;;;;;;;;;;5007014;28;20046;-78
2023/08/18 14:21:44;;;;;;;8.43;5.85;;;;;;;;;;5005386;28;20053;-79
2023/08/18 14:24:11;;;;;;;8.35;5.20;;;;;;;;;;5000794;28;20581;-79
2023/08/18 14:26:38;;;;;;;7.38;5.07;;;;;;;;;;5012118;28;20054;-78
2023/08/18 14:29:05;;;;;;;8.38;5.75;;;;;;;;;;4991409;28;21549;-78
2023/08/18 14:31:31;;;;;;;6.78;5.45;;;;;;;;;;5010209;28;20058;-80
2023/08/18 14:33:58;;;;;;;7.55;5.75;;;;;;;;;;5007262;28;20492;-80
2023/08/18 14:36:25;;;;;;;7.28;5.45;;;;;;;;;;4995201;28;20110;-79
2023/08/18 14:38:51;;;;;;;6.82;5.55;;;;;;;;;;4997317;28;20108;-80